»·PEaware :: UAL576 KLAS-KMRY

UAL576 :: KLAS-KMRY

FLIGHT INFORMATION

Flight Status: Arrived
Operator:
United Airlines
More flights by this operator :: More flights under this callsign
Pilot: Anonymous 8274 (8274)
Aircraft: BOEING 737-200
(B732)
More flights by this aircraft type
Origin: KLAS McCarran Intl
United States
Destination: KMRY Monterey Peninsula
United States
More flights between these airports :: More routes between these airports
Route: MCCRN5 HEC J60 LAX J88 RZS J501 BSR PEBB1
File this flight plan on PilotEdge
Remarks:
Altitude:
(Current/Filed)
30,000ft
Speed:
(Current/Filed)
460kts
Departed: 26-Jul-19 09:20 PM
Arrived: 26-Jul-19 10:46 PM
Distance/Time
Traveled:
325nm/1:25
Distance/Time
To Go:
Arrived

Flight Plot

Page will automatically refresh every two minutes.

Flight plan parsing failed; only flown route is shown


Map Options




Map Legend


Flown Route
Filed Route
Departure Airport
Arrival Airport
Navaid (VOR, NDB)
Fix

Horizontal Profiles

Position Reports

Time Latitude Longitude Heading Altitude Ground
Speed
26-Jul-19 20:48 36.082632 -115.153469 65 2120ft 0kts
26-Jul-19 20:49 36.082632 -115.153469 65 2120ft 0kts
26-Jul-19 20:50 36.082632 -115.153469 65 2120ft 0kts
26-Jul-19 20:51 36.082632 -115.153469 65 2120ft 0kts
26-Jul-19 20:52 36.082632 -115.153469 65 2120ft 0kts
26-Jul-19 20:53 36.082632 -115.153469 65 2120ft 0kts
26-Jul-19 20:54 36.082632 -115.153469 65 2120ft 0kts
26-Jul-19 20:55 36.082632 -115.153469 65 2120ft 0kts
26-Jul-19 20:56 36.082632 -115.153469 65 2120ft 0kts
26-Jul-19 20:57 36.082632 -115.153469 65 2120ft 0kts
26-Jul-19 20:58 36.082632 -115.153469 65 2120ft 0kts
26-Jul-19 20:59 36.082632 -115.153469 65 2120ft 0kts
26-Jul-19 21:00 36.082632 -115.153469 65 2120ft 0kts
26-Jul-19 21:01 36.082632 -115.153469 65 2120ft 0kts
26-Jul-19 21:02 36.082632 -115.153469 65 2120ft 0kts
26-Jul-19 21:02 36.082632 -115.153469 65 2120ft 0kts
26-Jul-19 21:04 36.082632 -115.153469 65 2120ft 0kts
26-Jul-19 21:05 36.082603 -115.153547 65 2120ft 2kts
26-Jul-19 21:05 36.082395 -115.154029 41 2120ft 2kts
26-Jul-19 21:07 36.081838 -115.154086 328 2120ft 1kts
26-Jul-19 21:07 36.081828 -115.154078 328 2120ft 0kts
26-Jul-19 21:08 36.081919 -115.154145 329 2120ft 5kts
26-Jul-19 21:10 36.083426 -115.155210 281 2120ft 0kts
26-Jul-19 21:10 36.083426 -115.155210 281 2120ft 0kts
26-Jul-19 21:11 36.083374 -115.155734 261 2120ft 7kts
26-Jul-19 21:12 36.085703 -115.157388 334 2120ft 15kts
26-Jul-19 21:13 36.090053 -115.156240 26 2120ft 18kts
26-Jul-19 21:14 36.094990 -115.153392 23 2120ft 20kts
26-Jul-19 21:15 36.097956 -115.152426 301 2120ft 0kts
26-Jul-19 21:16 36.097956 -115.152426 301 2120ft 0kts
26-Jul-19 21:17 36.097956 -115.152426 301 2120ft 0kts
26-Jul-19 21:18 36.098157 -115.152870 297 2120ft 7kts
26-Jul-19 21:19 36.093551 -115.156434 205 2120ft 90kts
26-Jul-19 21:20 36.056936 -115.176454 206 3391ft 155kts
26-Jul-19 21:21 36.011719 -115.205475 224 4617ft 220kts
26-Jul-19 21:22 35.967529 -115.265118 212 7023ft 252kts
26-Jul-19 21:23 35.896650 -115.283188 191 7006ft 278kts
26-Jul-19 21:24 35.818511 -115.300380 191 7019ft 288kts
26-Jul-19 21:25 35.738744 -115.317967 191 8924ft 295kts
26-Jul-19 21:26 35.659684 -115.346150 211 11260ft 312kts
26-Jul-19 21:27 35.588484 -115.414034 223 13306ft 333kts
26-Jul-19 21:28 35.522372 -115.495254 228 15556ft 339kts
26-Jul-19 21:29 35.458870 -115.586172 231 17049ft 360kts
26-Jul-19 21:30 35.397705 -115.677866 230 18839ft 363kts
26-Jul-19 21:31 35.332025 -115.772950 229 18984ft 361kts
26-Jul-19 21:32 35.265086 -115.863093 227 19988ft 353kts
26-Jul-19 21:33 35.195504 -115.951566 226 21136ft 371kts
26-Jul-19 21:34 35.121788 -116.043133 226 22322ft 383kts
26-Jul-19 21:35 35.046711 -116.137264 227 23572ft 389kts
26-Jul-19 21:36 34.972222 -116.233835 227 24806ft 392kts
26-Jul-19 21:37 34.899842 -116.320355 229 25878ft 394kts
26-Jul-19 21:38 34.832180 -116.414182 228 26925ft 394kts
26-Jul-19 21:39 34.758948 -116.513236 221 27956ft 395kts
26-Jul-19 21:40 34.680916 -116.606785 227 28901ft 394kts
26-Jul-19 21:41 34.605715 -116.703747 226 29796ft 394kts
26-Jul-19 21:42 34.528879 -116.801326 225 30204ft 406kts
26-Jul-19 21:43 34.448286 -116.901766 225 30194ft 426kts
26-Jul-19 21:44 34.363630 -117.006480 225 30175ft 442kts
26-Jul-19 21:45 34.276244 -117.114326 225 30159ft 456kts
26-Jul-19 21:46 34.186438 -117.225040 225 30132ft 467kts
26-Jul-19 21:47 34.094678 -117.337937 225 30082ft 476kts
26-Jul-19 21:48 34.002529 -117.451029 225 30069ft 466kts
26-Jul-19 21:49 33.915036 -117.564147 239 30065ft 457kts
26-Jul-19 21:50 33.922445 -117.708848 286 30072ft 450kts
26-Jul-19 21:51 33.921331 -117.857304 269 30070ft 442kts
26-Jul-19 21:52 33.924067 -118.004926 271 30060ft 438kts
26-Jul-19 21:53 33.927357 -118.151050 270 30053ft 434kts
26-Jul-19 21:54 33.929403 -118.296544 270 30054ft 431kts
26-Jul-19 21:55 33.929248 -118.439559 281 30050ft 428kts
26-Jul-19 21:56 33.992519 -118.559265 304 30054ft 428kts
26-Jul-19 21:57 34.042360 -118.682254 296 30056ft 433kts
26-Jul-19 21:58 34.099712 -118.811849 297 30064ft 440kts
26-Jul-19 21:59 34.157682 -118.942231 297 30082ft 442kts
26-Jul-19 22:00 34.215397 -119.074087 296 30067ft 444kts
26-Jul-19 22:01 34.271744 -119.207576 295 30073ft 444kts
26-Jul-19 22:02 34.326882 -119.340737 296 30072ft 442kts
26-Jul-19 22:03 34.383999 -119.472164 296 30072ft 440kts
26-Jul-19 22:04 34.433838 -119.589533 296 30072ft 439kts
26-Jul-19 22:05 34.487628 -119.720768 295 30072ft 437kts
26-Jul-19 22:06 34.556008 -119.840640 327 30070ft 439kts
26-Jul-19 22:07 34.650514 -119.926357 311 30075ft 433kts
26-Jul-19 22:08 34.740467 -120.024342 317 30077ft 434kts
26-Jul-19 22:09 34.830319 -120.122267 316 30111ft 434kts
26-Jul-19 22:10 34.919194 -120.221051 316 30134ft 434kts
26-Jul-19 22:11 35.008223 -120.320503 315 30137ft 434kts
26-Jul-19 22:12 35.097225 -120.419959 315 30137ft 434kts
26-Jul-19 22:13 35.182391 -120.513996 316 30137ft 434kts
26-Jul-19 22:14 35.264680 -120.605114 315 30137ft 433kts
26-Jul-19 22:15 35.348331 -120.698876 314 29442ft 425kts
26-Jul-19 22:16 35.433526 -120.795825 314 27300ft 412kts
26-Jul-19 22:17 35.515927 -120.889238 315 25229ft 398kts
26-Jul-19 22:18 35.596261 -120.976008 316 23239ft 385kts
26-Jul-19 22:19 35.675499 -121.060712 316 21250ft 373kts
26-Jul-19 22:20 35.750902 -121.145111 314 19296ft 362kts
26-Jul-19 22:21 35.823088 -121.229740 314 17376ft 352kts
26-Jul-19 22:22 35.893069 -121.311962 314 15508ft 344kts
26-Jul-19 22:23 35.962248 -121.391013 315 13691ft 337kts
26-Jul-19 22:24 36.030847 -121.468853 315 11715ft 336kts
26-Jul-19 22:25 36.099030 -121.547189 315 10040ft 324kts
26-Jul-19 22:26 36.161751 -121.619222 315 9998ft 314kts
26-Jul-19 22:27 36.227670 -121.688572 339 9998ft 318kts
26-Jul-19 22:28 36.293879 -121.746724 318 9985ft 284kts
26-Jul-19 22:29 36.361326 -121.798004 326 8542ft 286kts
26-Jul-19 22:30 36.426065 -121.852109 323 7119ft 268kts
26-Jul-19 22:31 36.484723 -121.903853 322 6990ft 249kts
26-Jul-19 22:32 36.539463 -121.941258 353 6797ft 213kts
26-Jul-19 22:33 36.598248 -121.942408 3 5466ft 212kts
26-Jul-19 22:34 36.649355 -121.958114 302 4121ft 201kts
26-Jul-19 22:35 36.676218 -122.017830 303 2889ft 194kts
26-Jul-19 22:36 36.683580 -122.077941 262 2581ft 181kts
26-Jul-19 22:37 36.674324 -122.139410 262 2592ft 181kts
26-Jul-19 22:38 36.705244 -122.146662 75 2587ft 193kts
26-Jul-19 22:39 36.675382 -122.094504 133 2587ft 187kts
26-Jul-19 22:40 36.652279 -122.040276 111 2557ft 175kts
26-Jul-19 22:41 36.634348 -121.983750 112 1803ft 175kts
26-Jul-19 22:42 36.616521 -121.931873 113 1519ft 145kts
26-Jul-19 22:43 36.601072 -121.885924 113 711ft 141kts
26-Jul-19 22:44 36.586486 -121.842891 113 171ft 98kts
26-Jul-19 22:45 36.582820 -121.834739 279 170ft 0kts
26-Jul-19 22:46 36.583387 -121.836613 293 170ft 19kts
26-Jul-19 22:47 36.585773 -121.843636 292 170ft 22kts
26-Jul-19 22:48 36.588247 -121.850638 292 170ft 22kts

Navigation Log

Ident Type
Flight plan parsing failed, navigation log unavailable